sensor_id;sensor_type;location;lat;lon;timestamp;temperature;humidity
64939;DHT22;51453;47.738;7.420;2023-04-25T00:02:14;8.70;99.90
64939;DHT22;51453;47.738;7.420;2023-04-25T00:04:40;8.60;99.90
64939;DHT22;51453;47.738;7.420;2023-04-25T00:07:06;8.60;99.90
64939;DHT22;51453;47.738;7.420;2023-04-25T00:09:32;8.50;99.90
64939;DHT22;51453;47.738;7.420;2023-04-25T00:11:57;8.50;99.90
64939;DHT22;51453;47.738;7.420;2023-04-25T00:14:23;8.40;99.90
64939;DHT22;51453;47.738;7.420;2023-04-25T00:16:48;8.40;99.90
64939;DHT22;51453;47.738;7.420;2023-04-25T00:19:17;8.40;99.90
64939;DHT22;51453;47.738;7.420;2023-04-25T00:21:42;8.30;99.90
64939;DHT22;51453;47.738;7.420;2023-04-25T00:24:12;8.30;99.90
64939;DHT22;51453;47.738;7.420;2023-04-25T00:26:38;8.20;99.90
64939;DHT22;51453;47.738;7.420;2023-04-25T00:29:03;8.30;99.90
64939;DHT22;51453;47.738;7.420;2023-04-25T00:31:29;8.30;99.90
64939;DHT22;51453;47.738;7.420;2023-04-25T00:33:55;8.30;99.90
64939;DHT22;51453;47.738;7.420;2023-04-25T00:36:21;8.30;99.90
64939;DHT22;51453;47.738;7.420;2023-04-25T00:38:46;8.30;99.90
64939;DHT22;51453;47.738;7.420;2023-04-25T00:41:12;8.20;99.90
64939;DHT22;51453;47.738;7.420;2023-04-25T00:43:38;8.10;99.90
64939;DHT22;51453;47.738;7.420;2023-04-25T00:46:04;8.00;99.90
64939;DHT22;51453;47.738;7.420;2023-04-25T00:48:30;7.90;99.90
64939;DHT22;51453;47.738;7.420;2023-04-25T00:50:59;7.90;99.90
64939;DHT22;51453;47.738;7.420;2023-04-25T00:53:27;7.80;99.90
64939;DHT22;51453;47.738;7.420;2023-04-25T00:55:53;7.80;99.90
64939;DHT22;51453;47.738;7.420;2023-04-25T00:58:20;7.70;99.90
64939;DHT22;51453;47.738;7.420;2023-04-25T01:00:48;7.70;99.90
64939;DHT22;51453;47.738;7.420;2023-04-25T01:03:15;7.60;99.90
64939;DHT22;51453;47.738;7.420;2023-04-25T01:05:42;7.60;99.90
64939;DHT22;51453;47.738;7.420;2023-04-25T01:08:08;7.60;99.90
64939;DHT22;51453;47.738;7.420;2023-04-25T01:10:33;7.60;99.90
64939;DHT22;51453;47.738;7.420;2023-04-25T01:12:59;7.70;99.90
64939;DHT22;51453;47.738;7.420;2023-04-25T01:15:25;7.70;99.90
64939;DHT22;51453;47.738;7.420;2023-04-25T01:17:51;7.80;99.90
64939;DHT22;51453;47.738;7.420;2023-04-25T01:20:16;7.70;99.90
64939;DHT22;51453;47.738;7.420;2023-04-25T01:22:43;7.80;99.90
64939;DHT22;51453;47.738;7.420;2023-04-25T01:25:09;7.80;99.90
64939;DHT22;51453;47.738;7.420;2023-04-25T01:27:36;7.80;99.90
64939;DHT22;51453;47.738;7.420;2023-04-25T01:30:03;7.80;99.90
64939;DHT22;51453;47.738;7.420;2023-04-25T01:32:30;7.70;99.90
64939;DHT22;51453;47.738;7.420;2023-04-25T01:35:07;7.70;99.90
64939;DHT22;51453;47.738;7.420;2023-04-25T01:37:41;7.60;99.90
64939;DHT22;51453;47.738;7.420;2023-04-25T01:40:09;7.50;99.90
64939;DHT22;51453;47.738;7.420;2023-04-25T01:42:38;7.40;99.90
64939;DHT22;51453;47.738;7.420;2023-04-25T01:45:04;7.30;99.90
64939;DHT22;51453;47.738;7.420;2023-04-25T01:47:30;7.20;99.90
64939;DHT22;51453;47.738;7.420;2023-04-25T01:49:56;7.10;99.90
64939;DHT22;51453;47.738;7.420;2023-04-25T01:52:21;7.00;99.90
64939;DHT22;51453;47.738;7.420;2023-04-25T01:54:47;6.90;99.90
64939;DHT22;51453;47.738;7.420;2023-04-25T01:57:14;6.80;99.90
64939;DHT22;51453;47.738;7.420;2023-04-25T01:59:41;6.80;99.90
64939;DHT22;51453;47.738;7.420;2023-04-25T02:02:07;6.80;99.90
64939;DHT22;51453;47.738;7.420;2023-04-25T02:04:33;6.80;99.90
64939;DHT22;51453;47.738;7.420;2023-04-25T02:06:58;6.80;99.90
64939;DHT22;51453;47.738;7.420;2023-04-25T02:09:24;6.70;99.90
64939;DHT22;51453;47.738;7.420;2023-04-25T02:11:50;6.70;99.90
64939;DHT22;51453;47.738;7.420;2023-04-25T02:14:16;6.70;99.90
64939;DHT22;51453;47.738;7.420;2023-04-25T02:16:41;6.60;99.90
64939;DHT22;51453;47.738;7.420;2023-04-25T02:19:09;6.50;99.90
64939;DHT22;51453;47.738;7.420;2023-04-25T02:21:35;6.50;99.90
64939;DHT22;51453;47.738;7.420;2023-04-25T02:24:01;6.40;99.90
64939;DHT22;51453;47.738;7.420;2023-04-25T02:26:27;6.40;99.90
64939;DHT22;51453;47.738;7.420;2023-04-25T02:28:53;6.30;99.90
64939;DHT22;51453;47.738;7.420;2023-04-25T02:31:19;6.30;99.90
64939;DHT22;51453;47.738;7.420;2023-04-25T02:33:44;6.40;99.90
64939;DHT22;51453;47.738;7.420;2023-04-25T02:36:10;6.40;99.90
64939;DHT22;51453;47.738;7.420;2023-04-25T02:38:36;6.40;99.90
64939;DHT22;51453;47.738;7.420;2023-04-25T02:41:01;6.40;99.90
64939;DHT22;51453;47.738;7.420;2023-04-25T02:43:27;6.50;99.90
64939;DHT22;51453;47.738;7.420;2023-04-25T02:45:52;6.50;99.90
64939;DHT22;51453;47.738;7.420;2023-04-25T02:48:18;6.50;99.90
64939;DHT22;51453;47.738;7.420;2023-04-25T02:50:44;6.40;99.90
64939;DHT22;51453;47.738;7.420;2023-04-25T02:53:10;6.40;99.90
64939;DHT22;51453;47.738;7.420;2023-04-25T02:55:36;6.40;99.90
64939;DHT22;51453;47.738;7.420;2023-04-25T02:58:02;6.30;99.90
64939;DHT22;51453;47.738;7.420;2023-04-25T03:00:27;6.30;99.90
64939;DHT22;51453;47.738;7.420;2023-04-25T03:02:53;6.20;99.90
64939;DHT22;51453;47.738;7.420;2023-04-25T03:05:19;6.30;99.90
64939;DHT22;51453;47.738;7.420;2023-04-25T03:07:45;6.30;99.90
64939;DHT22;51453;47.738;7.420;2023-04-25T03:10:12;6.40;99.90
64939;DHT22;51453;47.738;7.420;2023-04-25T03:12:37;6.40;99.90
64939;DHT22;51453;47.738;7.420;2023-04-25T03:15:03;6.40;99.90
64939;DHT22;51453;47.738;7.420;2023-04-25T03:17:29;6.40;99.90
64939;DHT22;51453;47.738;7.420;2023-04-25T03:19:55;6.40;99.90
64939;DHT22;51453;47.738;7.420;2023-04-25T03:22:21;6.40;99.90
64939;DHT22;51453;47.738;7.420;2023-04-25T03:24:47;6.40;99.90
64939;DHT22;51453;47.738;7.420;2023-04-25T03:27:13;6.40;99.90
64939;DHT22;51453;47.738;7.420;2023-04-25T03:29:38;6.40;99.90
64939;DHT22;51453;47.738;7.420;2023-04-25T03:32:05;6.40;99.90
64939;DHT22;51453;47.738;7.420;2023-04-25T03:34:31;6.40;99.90
64939;DHT22;51453;47.738;7.420;2023-04-25T03:36:57;6.30;99.90
64939;DHT22;51453;47.738;7.420;2023-04-25T03:39:22;6.30;99.90
64939;DHT22;51453;47.738;7.420;2023-04-25T03:41:48;6.20;99.90
64939;DHT22;51453;47.738;7.420;2023-04-25T03:44:14;6.20;99.90
64939;DHT22;51453;47.738;7.420;2023-04-25T03:46:40;6.10;99.90
64939;DHT22;51453;47.738;7.420;2023-04-25T03:49:05;6.10;99.90
64939;DHT22;51453;47.738;7.420;2023-04-25T03:51:31;6.00;99.90
64939;DHT22;51453;47.738;7.420;2023-04-25T03:53:57;6.10;99.90
64939;DHT22;51453;47.738;7.420;2023-04-25T03:56:23;6.10;99.90
64939;DHT22;51453;47.738;7.420;2023-04-25T03:58:48;6.10;99.90
64939;DHT22;51453;47.738;7.420;2023-04-25T04:01:14;6.10;99.90
64939;DHT22;51453;47.738;7.420;2023-04-25T04:03:40;6.20;99.90
64939;DHT22;51453;47.738;7.420;2023-04-25T04:06:06;6.30;99.90
64939;DHT22;51453;47.738;7.420;2023-04-25T04:08:33;6.30;99.90
64939;DHT22;51453;47.738;7.420;2023-04-25T04:10:59;6.40;99.90
64939;DHT22;51453;47.738;7.420;2023-04-25T04:13:28;6.40;99.90
64939;DHT22;51453;47.738;7.420;2023-04-25T04:15:55;6.50;99.90
64939;DHT22;51453;47.738;7.420;2023-04-25T04:18:21;6.50;99.90
64939;DHT22;51453;47.738;7.420;2023-04-25T04:20:47;6.60;99.90
64939;DHT22;51453;47.738;7.420;2023-04-25T04:23:12;6.60;99.90
64939;DHT22;51453;47.738;7.420;2023-04-25T04:25:38;6.70;99.90
64939;DHT22;51453;47.738;7.420;2023-04-25T04:28:05;6.70;99.90
64939;DHT22;51453;47.738;7.420;2023-04-25T04:30:31;6.80;99.90
64939;DHT22;51453;47.738;7.420;2023-04-25T04:32:59;7.00;99.90
64939;DHT22;51453;47.738;7.420;2023-04-25T04:35:26;7.10;99.90
64939;DHT22;51453;47.738;7.420;2023-04-25T04:37:52;7.10;99.90
64939;DHT22;51453;47.738;7.420;2023-04-25T04:40:17;7.00;99.90
64939;DHT22;51453;47.738;7.420;2023-04-25T04:42:44;6.90;99.90
64939;DHT22;51453;47.738;7.420;2023-04-25T04:45:10;6.80;99.90
64939;DHT22;51453;47.738;7.420;2023-04-25T04:47:38;6.70;99.90
64939;DHT22;51453;47.738;7.420;2023-04-25T04:50:06;6.60;99.90
64939;DHT22;51453;47.738;7.420;2023-04-25T04:52:34;6.60;99.90
64939;DHT22;51453;47.738;7.420;2023-04-25T04:55:00;6.50;99.90
64939;DHT22;51453;47.738;7.420;2023-04-25T04:57:25;6.40;99.90
64939;DHT22;51453;47.738;7.420;2023-04-25T04:59:52;6.40;99.90
64939;DHT22;51453;47.738;7.420;2023-04-25T05:02:17;6.30;99.90
64939;DHT22;51453;47.738;7.420;2023-04-25T05:04:43;6.30;99.90
64939;DHT22;51453;47.738;7.420;2023-04-25T05:07:08;6.40;99.90
64939;DHT22;51453;47.738;7.420;2023-04-25T05:09:34;6.40;99.90
64939;DHT22;51453;47.738;7.420;2023-04-25T05:12:00;6.40;99.90
64939;DHT22;51453;47.738;7.420;2023-04-25T05:14:26;6.40;99.90
64939;DHT22;51453;47.738;7.420;2023-04-25T05:16:52;6.50;99.90
64939;DHT22;51453;47.738;7.420;2023-04-25T05:19:17;6.40;99.90
64939;DHT22;51453;47.738;7.420;2023-04-25T05:21:43;6.40;99.90
64939;DHT22;51453;47.738;7.420;2023-04-25T05:24:09;6.40;99.90
64939;DHT22;51453;47.738;7.420;2023-04-25T05:26:34;6.40;99.90
64939;DHT22;51453;47.738;7.420;2023-04-25T05:29:00;6.40;99.90
64939;DHT22;51453;47.738;7.420;2023-04-25T05:31:26;6.40;99.90
64939;DHT22;51453;47.738;7.420;2023-04-25T05:33:52;6.40;99.90
64939;DHT22;51453;47.738;7.420;2023-04-25T05:36:20;6.50;99.90
64939;DHT22;51453;47.738;7.420;2023-04-25T05:38:46;6.50;99.90
64939;DHT22;51453;47.738;7.420;2023-04-25T05:41:12;6.50;99.90
64939;DHT22;51453;47.738;7.420;2023-04-25T05:43:38;6.50;99.90
64939;DHT22;51453;47.738;7.420;2023-04-25T05:46:03;6.60;99.90
64939;DHT22;51453;47.738;7.420;2023-04-25T05:48:29;6.60;99.90
64939;DHT22;51453;47.738;7.420;2023-04-25T05:50:55;6.70;99.90
64939;DHT22;51453;47.738;7.420;2023-04-25T05:53:21;6.70;99.90
64939;DHT22;51453;47.738;7.420;2023-04-25T05:55:47;6.70;99.90
64939;DHT22;51453;47.738;7.420;2023-04-25T05:58:13;6.80;99.90
64939;DHT22;51453;47.738;7.420;2023-04-25T06:00:38;6.90;99.90
64939;DHT22;51453;47.738;7.420;2023-04-25T06:03:04;6.80;99.90
64939;DHT22;51453;47.738;7.420;2023-04-25T06:05:30;6.90;99.90
64939;DHT22;51453;47.738;7.420;2023-04-25T06:07:55;6.80;99.90
64939;DHT22;51453;47.738;7.420;2023-04-25T06:10:21;6.90;99.90
64939;DHT22;51453;47.738;7.420;2023-04-25T06:12:48;6.90;99.90
64939;DHT22;51453;47.738;7.420;2023-04-25T06:15:13;6.90;99.90
64939;DHT22;51453;47.738;7.420;2023-04-25T06:17:39;6.90;99.90
64939;DHT22;51453;47.738;7.420;2023-04-25T06:20:05;7.00;99.90
64939;DHT22;51453;47.738;7.420;2023-04-25T06:22:31;7.00;99.90
64939;DHT22;51453;47.738;7.420;2023-04-25T06:24:57;7.10;99.90
64939;DHT22;51453;47.738;7.420;2023-04-25T06:27:24;7.10;99.90
64939;DHT22;51453;47.738;7.420;2023-04-25T06:29:50;7.10;99.90
64939;DHT22;51453;47.738;7.420;2023-04-25T06:32:16;7.20;99.90
64939;DHT22;51453;47.738;7.420;2023-04-25T06:34:43;7.30;99.90
64939;DHT22;51453;47.738;7.420;2023-04-25T06:37:09;7.40;99.90
64939;DHT22;51453;47.738;7.420;2023-04-25T06:39:35;7.50;99.90
64939;DHT22;51453;47.738;7.420;2023-04-25T06:42:00;7.70;99.90
64939;DHT22;51453;47.738;7.420;2023-04-25T06:44:26;7.80;99.90
64939;DHT22;51453;47.738;7.420;2023-04-25T06:46:54;7.80;99.90
64939;DHT22;51453;47.738;7.420;2023-04-25T06:49:19;7.90;99.90
64939;DHT22;51453;47.738;7.420;2023-04-25T06:51:45;7.90;99.90
64939;DHT22;51453;47.738;7.420;2023-04-25T06:54:10;7.90;99.90
64939;DHT22;51453;47.738;7.420;2023-04-25T06:56:36;8.00;99.90
64939;DHT22;51453;47.738;7.420;2023-04-25T06:59:02;7.90;99.90
64939;DHT22;51453;47.738;7.420;2023-04-25T07:01:27;7.90;99.90
64939;DHT22;51453;47.738;7.420;2023-04-25T07:03:53;8.00;99.90
64939;DHT22;51453;47.738;7.420;2023-04-25T07:06:19;8.00;99.90
64939;DHT22;51453;47.738;7.420;2023-04-25T07:08:45;8.00;99.90
64939;DHT22;51453;47.738;7.420;2023-04-25T07:11:11;8.20;99.90
64939;DHT22;51453;47.738;7.420;2023-04-25T07:13:36;8.40;99.90
64939;DHT22;51453;47.738;7.420;2023-04-25T07:16:02;8.50;99.90
64939;DHT22;51453;47.738;7.420;2023-04-25T07:18:28;8.60;99.90
64939;DHT22;51453;47.738;7.420;2023-04-25T07:20:54;8.60;99.90
64939;DHT22;51453;47.738;7.420;2023-04-25T07:23:19;8.60;99.90
64939;DHT22;51453;47.738;7.420;2023-04-25T07:25:46;8.60;99.90
64939;DHT22;51453;47.738;7.420;2023-04-25T07:28:11;8.70;99.90
64939;DHT22;51453;47.738;7.420;2023-04-25T07:30:37;8.70;99.90
64939;DHT22;51453;47.738;7.420;2023-04-25T07:33:03;8.70;99.90
64939;DHT22;51453;47.738;7.420;2023-04-25T07:35:28;8.90;99.90
64939;DHT22;51453;47.738;7.420;2023-04-25T07:37:54;9.20;99.90
64939;DHT22;51453;47.738;7.420;2023-04-25T07:40:20;9.80;99.90
64939;DHT22;51453;47.738;7.420;2023-04-25T07:42:46;10.30;99.90
64939;DHT22;51453;47.738;7.420;2023-04-25T07:45:12;10.70;99.90
64939;DHT22;51453;47.738;7.420;2023-04-25T07:47:38;10.90;99.90
64939;DHT22;51453;47.738;7.420;2023-04-25T07:50:04;11.00;99.90
64939;DHT22;51453;47.738;7.420;2023-04-25T07:52:30;11.10;99.90
64939;DHT22;51453;47.738;7.420;2023-04-25T07:54:55;11.10;99.90
64939;DHT22;51453;47.738;7.420;2023-04-25T07:57:23;11.00;99.90
64939;DHT22;51453;47.738;7.420;2023-04-25T07:59:49;10.80;99.90
64939;DHT22;51453;47.738;7.420;2023-04-25T08:02:15;10.50;99.90
64939;DHT22;51453;47.738;7.420;2023-04-25T08:04:40;10.50;99.90
64939;DHT22;51453;47.738;7.420;2023-04-25T08:07:06;10.50;99.90
64939;DHT22;51453;47.738;7.420;2023-04-25T08:09:32;10.50;99.90
64939;DHT22;51453;47.738;7.420;2023-04-25T08:12:02;10.40;99.90
64939;DHT22;51453;47.738;7.420;2023-04-25T08:14:28;10.40;99.90
64939;DHT22;51453;47.738;7.420;2023-04-25T08:16:56;10.60;99.90
64939;DHT22;51453;47.738;7.420;2023-04-25T08:19:22;10.80;99.90
64939;DHT22;51453;47.738;7.420;2023-04-25T08:21:47;10.80;99.90
64939;DHT22;51453;47.738;7.420;2023-04-25T08:24:13;10.80;99.90
64939;DHT22;51453;47.738;7.420;2023-04-25T08:26:39;10.70;99.90
64939;DHT22;51453;47.738;7.420;2023-04-25T08:29:06;10.80;99.90
64939;DHT22;51453;47.738;7.420;2023-04-25T08:31:31;10.90;99.90
64939;DHT22;51453;47.738;7.420;2023-04-25T08:33:57;11.00;99.90
64939;DHT22;51453;47.738;7.420;2023-04-25T08:36:23;11.10;99.90
64939;DHT22;51453;47.738;7.420;2023-04-25T08:38:49;11.30;99.90
64939;DHT22;51453;47.738;7.420;2023-04-25T08:41:15;11.40;99.90
64939;DHT22;51453;47.738;7.420;2023-04-25T08:43:42;11.80;99.90
64939;DHT22;51453;47.738;7.420;2023-04-25T08:46:09;11.90;99.90
64939;DHT22;51453;47.738;7.420;2023-04-25T08:48:36;12.20;99.90
64939;DHT22;51453;47.738;7.420;2023-04-25T08:51:02;12.30;99.90
64939;DHT22;51453;47.738;7.420;2023-04-25T08:53:33;12.40;99.90
64939;DHT22;51453;47.738;7.420;2023-04-25T08:56:00;12.50;99.90
64939;DHT22;51453;47.738;7.420;2023-04-25T08:58:29;12.60;99.90
64939;DHT22;51453;47.738;7.420;2023-04-25T09:00:55;12.50;99.90
64939;DHT22;51453;47.738;7.420;2023-04-25T09:03:21;12.60;99.90
64939;DHT22;51453;47.738;7.420;2023-04-25T09:05:47;12.20;99.90
64939;DHT22;51453;47.738;7.420;2023-04-25T09:08:12;11.90;99.90
64939;DHT22;51453;47.738;7.420;2023-04-25T09:10:38;11.60;99.90
64939;DHT22;51453;47.738;7.420;2023-04-25T09:13:07;11.60;99.90
64939;DHT22;51453;47.738;7.420;2023-04-25T09:15:48;11.70;99.90
64939;DHT22;51453;47.738;7.420;2023-04-25T09:18:31;12.00;99.90
64939;DHT22;51453;47.738;7.420;2023-04-25T09:21:09;12.30;99.90
64939;DHT22;51453;47.738;7.420;2023-04-25T09:23:44;12.70;99.90
64939;DHT22;51453;47.738;7.420;2023-04-25T09:26:20;13.10;99.90
64939;DHT22;51453;47.738;7.420;2023-04-25T09:28:46;13.70;99.90
64939;DHT22;51453;47.738;7.420;2023-04-25T09:31:24;13.90;99.90
64939;DHT22;51453;47.738;7.420;2023-04-25T09:33:50;13.70;99.90
64939;DHT22;51453;47.738;7.420;2023-04-25T09:36:26;13.30;99.90
64939;DHT22;51453;47.738;7.420;2023-04-25T09:38:52;13.00;99.90
64939;DHT22;51453;47.738;7.420;2023-04-25T09:41:23;13.10;99.90
64939;DHT22;51453;47.738;7.420;2023-04-25T09:43:49;13.40;99.90
64939;DHT22;51453;47.738;7.420;2023-04-25T09:46:15;13.70;99.90
64939;DHT22;51453;47.738;7.420;2023-04-25T09:48:48;14.30;99.90
64939;DHT22;51453;47.738;7.420;2023-04-25T09:51:14;14.80;99.90
64939;DHT22;51453;47.738;7.420;2023-04-25T09:53:45;15.10;99.90
64939;DHT22;51453;47.738;7.420;2023-04-25T09:56:17;15.20;99.90
64939;DHT22;51453;47.738;7.420;2023-04-25T09:58:44;15.10;99.90
64939;DHT22;51453;47.738;7.420;2023-04-25T10:01:12;14.80;99.90
64939;DHT22;51453;47.738;7.420;2023-04-25T10:03:39;14.80;99.90
64939;DHT22;51453;47.738;7.420;2023-04-25T10:06:16;14.80;99.90
64939;DHT22;51453;47.738;7.420;2023-04-25T10:08:44;14.70;99.90
64939;DHT22;51453;47.738;7.420;2023-04-25T10:11:10;14.50;99.90
64939;DHT22;51453;47.738;7.420;2023-04-25T10:13:37;14.30;99.90
64939;DHT22;51453;47.738;7.420;2023-04-25T10:16:04;14.40;99.90
64939;DHT22;51453;47.738;7.420;2023-04-25T10:18:31;14.30;99.90
64939;DHT22;51453;47.738;7.420;2023-04-25T10:20:59;14.20;99.90
64939;DHT22;51453;47.738;7.420;2023-04-25T10:23:26;14.30;99.90
64939;DHT22;51453;47.738;7.420;2023-04-25T10:25:53;14.40;99.90
64939;DHT22;51453;47.738;7.420;2023-04-25T10:28:20;14.50;99.90
64939;DHT22;51453;47.738;7.420;2023-04-25T10:31:03;14.60;99.90
64939;DHT22;51453;47.738;7.420;2023-04-25T10:33:37;14.80;99.90
64939;DHT22;51453;47.738;7.420;2023-04-25T10:36:18;14.90;99.90
64939;DHT22;51453;47.738;7.420;2023-04-25T10:38:45;15.30;99.90
64939;DHT22;51453;47.738;7.420;2023-04-25T10:41:12;15.40;99.90
64939;DHT22;51453;47.738;7.420;2023-04-25T10:43:44;15.80;99.90
64939;DHT22;51453;47.738;7.420;2023-04-25T10:46:25;16.20;99.90
64939;DHT22;51453;47.738;7.420;2023-04-25T10:48:53;16.40;99.90
64939;DHT22;51453;47.738;7.420;2023-04-25T10:51:22;16.60;99.90
64939;DHT22;51453;47.738;7.420;2023-04-25T10:53:58;16.40;99.90
64939;DHT22;51453;47.738;7.420;2023-04-25T10:59:18;16.00;99.90
64939;DHT22;51453;47.738;7.420;2023-04-25T11:01:46;15.90;99.90
64939;DHT22;51453;47.738;7.420;2023-04-25T11:09:23;15.60;99.90
64939;DHT22;51453;47.738;7.420;2023-04-25T11:11:59;15.70;99.90
64939;DHT22;51453;47.738;7.420;2023-04-25T11:14:26;15.60;99.90
64939;DHT22;51453;47.738;7.420;2023-04-25T11:16:59;15.40;99.90
64939;DHT22;51453;47.738;7.420;2023-04-25T11:19:25;14.90;99.90
64939;DHT22;51453;47.738;7.420;2023-04-25T11:21:55;14.80;99.90
64939;DHT22;51453;47.738;7.420;2023-04-25T11:24:28;14.80;99.90
64939;DHT22;51453;47.738;7.420;2023-04-25T11:26:54;15.20;99.90
64939;DHT22;51453;47.738;7.420;2023-04-25T11:29:26;15.40;99.90
64939;DHT22;51453;47.738;7.420;2023-04-25T11:31:52;15.60;99.90
64939;DHT22;51453;47.738;7.420;2023-04-25T11:34:19;15.40;99.90
64939;DHT22;51453;47.738;7.420;2023-04-25T11:36:45;15.40;99.90
64939;DHT22;51453;47.738;7.420;2023-04-25T11:39:11;15.20;99.90
64939;DHT22;51453;47.738;7.420;2023-04-25T11:41:38;15.20;99.90
64939;DHT22;51453;47.738;7.420;2023-04-25T11:44:04;15.10;99.90
64939;DHT22;51453;47.738;7.420;2023-04-25T11:46:30;14.80;99.90
64939;DHT22;51453;47.738;7.420;2023-04-25T11:48:56;14.90;99.90
64939;DHT22;51453;47.738;7.420;2023-04-25T11:51:22;15.00;99.90
64939;DHT22;51453;47.738;7.420;2023-04-25T11:53:48;15.30;99.90
64939;DHT22;51453;47.738;7.420;2023-04-25T11:56:14;15.60;99.90
64939;DHT22;51453;47.738;7.420;2023-04-25T11:59:18;15.80;99.90
64939;DHT22;51453;47.738;7.420;2023-04-25T12:01:49;16.00;99.90
64939;DHT22;51453;47.738;7.420;2023-04-25T12:06:45;16.40;99.90
64939;DHT22;51453;47.738;7.420;2023-04-25T12:09:16;16.30;99.90
64939;DHT22;51453;47.738;7.420;2023-04-25T12:11:45;16.20;99.90
64939;DHT22;51453;47.738;7.420;2023-04-25T12:14:11;16.40;99.90
64939;DHT22;51453;47.738;7.420;2023-04-25T12:16:45;16.10;99.90
64939;DHT22;51453;47.738;7.420;2023-04-25T12:19:14;15.90;99.90
64939;DHT22;51453;47.738;7.420;2023-04-25T12:21:40;15.70;99.90
64939;DHT22;51453;47.738;7.420;2023-04-25T12:27:00;15.70;99.90
64939;DHT22;51453;47.738;7.420;2023-04-25T12:29:29;15.90;99.90
64939;DHT22;51453;47.738;7.420;2023-04-25T12:31:55;16.30;99.90
64939;DHT22;51453;47.738;7.420;2023-04-25T12:34:22;16.60;99.90
64939;DHT22;51453;47.738;7.420;2023-04-25T12:36:49;17.00;99.90
64939;DHT22;51453;47.738;7.420;2023-04-25T12:39:19;17.00;99.90
64939;DHT22;51453;47.738;7.420;2023-04-25T12:41:45;16.60;99.90
64939;DHT22;51453;47.738;7.420;2023-04-25T12:44:11;16.50;99.90
64939;DHT22;51453;47.738;7.420;2023-04-25T12:46:37;16.30;99.90
64939;DHT22;51453;47.738;7.420;2023-04-25T12:49:04;15.90;99.90
64939;DHT22;51453;47.738;7.420;2023-04-25T12:51:30;15.60;99.90
64939;DHT22;51453;47.738;7.420;2023-04-25T12:53:58;15.00;99.90
64939;DHT22;51453;47.738;7.420;2023-04-25T12:56:24;14.50;99.90
64939;DHT22;51453;47.738;7.420;2023-04-25T12:58:51;13.40;99.90
64939;DHT22;51453;47.738;7.420;2023-04-25T13:01:17;12.90;99.90
64939;DHT22;51453;47.738;7.420;2023-04-25T13:03:43;12.60;99.90
64939;DHT22;51453;47.738;7.420;2023-04-25T13:06:09;12.40;99.90
64939;DHT22;51453;47.738;7.420;2023-04-25T13:08:34;12.10;99.90
64939;DHT22;51453;47.738;7.420;2023-04-25T13:11:02;11.60;99.90
64939;DHT22;51453;47.738;7.420;2023-04-25T13:13:29;11.30;99.90
64939;DHT22;51453;47.738;7.420;2023-04-25T13:15:55;11.30;99.90
64939;DHT22;51453;47.738;7.420;2023-04-25T13:18:21;11.20;99.90
64939;DHT22;51453;47.738;7.420;2023-04-25T13:20:46;11.10;99.90
64939;DHT22;51453;47.738;7.420;2023-04-25T13:23:12;11.20;99.90
64939;DHT22;51453;47.738;7.420;2023-04-25T13:25:38;11.50;99.90
64939;DHT22;51453;47.738;7.420;2023-04-25T13:28:03;12.00;99.90
64939;DHT22;51453;47.738;7.420;2023-04-25T13:30:30;12.30;99.90
64939;DHT22;51453;47.738;7.420;2023-04-25T13:32:55;12.40;99.90
64939;DHT22;51453;47.738;7.420;2023-04-25T13:35:22;12.60;99.90
64939;DHT22;51453;47.738;7.420;2023-04-25T13:37:48;12.80;99.90
64939;DHT22;51453;47.738;7.420;2023-04-25T13:40:13;13.10;99.90
64939;DHT22;51453;47.738;7.420;2023-04-25T13:42:39;13.40;99.90
64939;DHT22;51453;47.738;7.420;2023-04-25T13:45:06;13.70;99.90
64939;DHT22;51453;47.738;7.420;2023-04-25T13:47:33;14.20;99.90
64939;DHT22;51453;47.738;7.420;2023-04-25T13:49:59;14.70;99.90
64939;DHT22;51453;47.738;7.420;2023-04-25T13:52:25;15.00;99.90
64939;DHT22;51453;47.738;7.420;2023-04-25T13:54:51;15.30;99.90
64939;DHT22;51453;47.738;7.420;2023-04-25T13:57:17;15.60;99.90
64939;DHT22;51453;47.738;7.420;2023-04-25T13:59:43;15.60;99.90
64939;DHT22;51453;47.738;7.420;2023-04-25T14:02:09;15.70;99.90
64939;DHT22;51453;47.738;7.420;2023-04-25T14:04:34;15.70;99.90
64939;DHT22;51453;47.738;7.420;2023-04-25T14:07:01;15.40;99.90
64939;DHT22;51453;47.738;7.420;2023-04-25T14:09:28;15.30;99.90
64939;DHT22;51453;47.738;7.420;2023-04-25T14:11:54;15.30;99.90
64939;DHT22;51453;47.738;7.420;2023-04-25T14:14:20;15.30;99.90
64939;DHT22;51453;47.738;7.420;2023-04-25T14:16:47;15.30;99.90
64939;DHT22;51453;47.738;7.420;2023-04-25T14:19:17;15.10;99.90
64939;DHT22;51453;47.738;7.420;2023-04-25T14:21:43;14.70;99.90
64939;DHT22;51453;47.738;7.420;2023-04-25T14:24:09;14.30;99.90
64939;DHT22;51453;47.738;7.420;2023-04-25T14:26:36;13.70;99.90
64939;DHT22;51453;47.738;7.420;2023-04-25T14:29:05;13.00;99.90
64939;DHT22;51453;47.738;7.420;2023-04-25T14:31:32;12.20;99.90
64939;DHT22;51453;47.738;7.420;2023-04-25T14:33:58;11.80;99.90
64939;DHT22;51453;47.738;7.420;2023-04-25T14:36:24;11.30;99.90
64939;DHT22;51453;47.738;7.420;2023-04-25T14:38:49;11.00;99.90
64939;DHT22;51453;47.738;7.420;2023-04-25T14:41:15;10.60;99.90
64939;DHT22;51453;47.738;7.420;2023-04-25T14:43:41;10.40;99.90
64939;DHT22;51453;47.738;7.420;2023-04-25T14:46:06;10.40;99.90
64939;DHT22;51453;47.738;7.420;2023-04-25T14:48:33;10.70;99.90
64939;DHT22;51453;47.738;7.420;2023-04-25T14:50:59;10.90;99.90
64939;DHT22;51453;47.738;7.420;2023-04-25T14:53:28;11.10;99.90
64939;DHT22;51453;47.738;7.420;2023-04-25T14:55:54;11.30;99.90
64939;DHT22;51453;47.738;7.420;2023-04-25T14:58:20;11.50;99.90
64939;DHT22;51453;47.738;7.420;2023-04-25T15:00:46;11.70;99.90
64939;DHT22;51453;47.738;7.420;2023-04-25T15:03:12;11.90;99.90
64939;DHT22;51453;47.738;7.420;2023-04-25T15:05:39;12.40;99.90
64939;DHT22;51453;47.738;7.420;2023-04-25T15:08:05;12.80;99.90
64939;DHT22;51453;47.738;7.420;2023-04-25T15:10:31;13.30;99.90
64939;DHT22;51453;47.738;7.420;2023-04-25T15:12:57;13.80;99.90
64939;DHT22;51453;47.738;7.420;2023-04-25T15:15:22;15.20;99.90
64939;DHT22;51453;47.738;7.420;2023-04-25T15:17:49;16.20;99.90
64939;DHT22;51453;47.738;7.420;2023-04-25T15:20:15;16.60;99.90
64939;DHT22;51453;47.738;7.420;2023-04-25T15:22:42;16.20;99.90
64939;DHT22;51453;47.738;7.420;2023-04-25T15:25:09;15.80;99.90
64939;DHT22;51453;47.738;7.420;2023-04-25T15:27:36;15.20;99.90
64939;DHT22;51453;47.738;7.420;2023-04-25T15:30:11;15.30;99.90
64939;DHT22;51453;47.738;7.420;2023-04-25T15:32:38;15.00;99.90
64939;DHT22;51453;47.738;7.420;2023-04-25T15:35:05;14.50;99.90
64939;DHT22;51453;47.738;7.420;2023-04-25T15:37:35;14.60;99.90
64939;DHT22;51453;47.738;7.420;2023-04-25T15:42:30;15.10;99.90
64939;DHT22;51453;47.738;7.420;2023-04-25T15:44:55;15.40;99.90
64939;DHT22;51453;47.738;7.420;2023-04-25T15:47:21;15.10;99.90
64939;DHT22;51453;47.738;7.420;2023-04-25T15:49:47;15.10;99.90
64939;DHT22;51453;47.738;7.420;2023-04-25T15:52:12;15.00;99.90